Rankings de siempre
Mejores tiempos personales válidos de equipo a través de todos los eventos y temporadas. Cada equipo aparece una vez por división.
Busca por nombre y abre la página donde está clasificado este récord de división.
133,327 equipos clasificados
| Pos. | Pos. AG | Equipo | Nacionalidad | Categoría de edad | TiempoMejor tiempo | Diferencia |
|---|---|---|---|---|---|---|
| 127526 | #44788 | Wei Xiong Loke & Louisa ChuaMAS · X 30-34 · AG #44788 | MAS | X 30-34 | 1:54:15 | +65:02 |
| 127527 | #44790 | Alicia Dulcinea Herrera & Eduardo Chacon CastilloMEX · X 30-34 · AG #44790 | MEX | X 30-34 | 1:54:15 | +65:02 |
| 127528 | #17136 | Baldwin Velasco & Charmaine Tan-BianaPHI · X 40-44 · AG #17136 | PHI | X 40-44 | 1:54:15 | +65:02 |
| 127529 | #19463 | Stefan Maste & Laura CupialGER · X 25-29 · AG #19463 | GER | X 25-29 | 1:54:15 | +65:02 |
| 127530 | #507 | Lorraine Ager & Dean AgerGBR · X 55-59 · AG #507 | GBR | X 55-59 | 1:54:15 | +65:02 |
| 127531 | #15722 | Christopher Drouillard & Julie HardyFRA · X 35-39 · AG #15722 | FRA | X 35-39 | 1:54:16 | +65:03 |
| 127532 | #44791 | Angela Joyce Sarmiento & Benjamin ClarkeX 30-34 · AG #44791 | -- | X 30-34 | 1:54:16 | +65:03 |
| 127533 | #19464 | 易非 刘 & 泽宇 陈CHN · X 25-29 · AG #19464 | CHN | X 25-29 | 1:54:16 | +65:03 |
| 127534 | #8686 | Lucas Lorenzi & Lucille ChaalonsFRA · X 16-24 · AG #8686 | FRA | X 16-24 | 1:54:16 | +65:03 |
| 127535 | #4246 | ANNA ADELITA PEREZ ROBLES & Jose Roman Acosta OliverMEX · X 45-49 · AG #4246 | MEX | X 45-49 | 1:54:17 | +65:04 |
| 127536 | #15723 | Roshan Mehta & Kavita MehtaNZL · X 35-39 · AG #15723 | NZL | X 35-39 | 1:54:17 | +65:04 |
| 127537 | #2910 | Matthew Seabrook & Alicia SeabrookRSA · X 50-54 · AG #2910 | RSA | X 50-54 | 1:54:17 | +65:04 |
| 127538 | #15724 | Ashvini Kumarswamy & Anand MenonCAN · X 35-39 · AG #15724 | CAN | X 35-39 | 1:54:17 | +65:04 |
| 127539 | -- | Pui Yi Yam & Chun Hong ChanHKG · X XU29 | HKG | X XU29 | 1:54:17 | +65:04 |
| 127540 | #508 | steven roles & Gayle RolesGBR · X 55-59 · AG #508 | GBR | X 55-59 | 1:54:17 | +65:04 |
| 127541 | #15725 | Johan Mostert & Anastasia EbelingX 35-39 · AG #15725 | -- | X 35-39 | 1:54:17 | +65:04 |
| 127542 | #4247 | Marie Coultas & Paul MackrillGBR · X 45-49 · AG #4247 | GBR | X 45-49 | 1:54:17 | +65:04 |
| 127543 | #19465 | Kausalyah Nalasevagan & Srilingam NagalingamMAS · X 25-29 · AG #19465 | MAS | X 25-29 | 1:54:18 | +65:05 |
| 127544 | #17137 | Marta Masternak & Pierre MeliaX 40-44 · AG #17137 | -- | X 40-44 | 1:54:18 | +65:05 |
| 127545 | #17138 | Magali Comet-Maire & Jean-Luc MaireFRA · X 40-44 · AG #17138 | FRA | X 40-44 | 1:54:18 | +65:05 |
| 127546 | #4248 | Laura Cleland & David ClelandGBR · X 45-49 · AG #4248 | GBR | X 45-49 | 1:54:18 | +65:05 |
| 127547 | #8687 | Trevor Chia & Marylyne AntimanoX 16-24 · AG #8687 | -- | X 16-24 | 1:54:18 | +65:05 |
| 127548 | #2911 | Ernest Tse & Salina PoonHKG · X 50-54 · AG #2911 | HKG | X 50-54 | 1:54:18 | +65:05 |
| 127549 | #44792 | Sebastian juillard & nina delaloyeSUI · X 30-34 · AG #44792 | SUI | X 30-34 | 1:54:19 | +65:06 |
| 127550 | #15726 | Ella Dix & Stephen FinkNZL · X 35-39 · AG #15726 | NZL | X 35-39 | 1:54:19 | +65:06 |
Página 5,102 de 5,334